Weather June 8, 2001 JST

@

2001/06/07 23:00 UTC

UHPP METAR 072300Z 19002MPS 9999 WKN013 WKN100 10/08 Q1022 NOSIG RMK QFE 763 SS 045 055 055

2001/06/07 22:55 UTC

PASY 072255Z 05015KT 3SM BR OVC003 05/03 A3012 RMK VIS 1V3 CIG 001V003 SLP199 8/6// 9/8// WR//

No METAR observation from PADAK is available in our system.

2001/06/07 23:15 UTC

PADU 072315Z 31004KT 6SM OVC006 06/04 A3002 RMK AO1 2245 WEA -DZ BR

2001/06/07 22:53 UTC

PACD 072253Z 12010KT 10SM FEW030 BKN038 BKN120 12/05 A3008 RMK AO2 SLP186 T01220050

Ads by TOK2